KPNA Airport (Ralph Wenz Field) Information

FAA: PNA - ICAO: KPNA

KPNA Airport Location

State Wyoming
County Sublette
City Pinedale
KPNA Airport is 5 miles southeast of Pinedale, WY.
Latitude 42-47-50.6000N
Longitude 109-48-39.7000W
Elevation 7,096ft

KPNA Airport METARs

METAR KPNA 262250Z AUTO 00000KT 10SM CLR 06/M14 A3021 RMK AO2
Altimeter 30.21"
Temperature 6.0°C (42.8°F)
Wind 0° at 0KT
Clouds Skies are clear.
Visibility 10.0mi
Time observed: 2021-11-26T22:50:00Z

KPNA Airport Details

Status Operational
Activation May 1940
Ownership Public
Usage Public
Chart SALT LAKE CITY
ATC on-site No
Beacon schedule sunset-sunrise
Beacon color clear green

KPNA Airport Contacts

Owner TOWN OF PINEDALE
Owner address P. O. BOX 709, PINEDALE, WY 82941
Owner phone 307-367-4136
Manager GEORGE WHITE
Manager address P.O. BOX 50, DEVILS TOWER, WY 82714
Manager phone 307-467-5540

KPNA Airport (Ralph Wenz Field) Radio Frequencies

KPNA (Airport) Radio Frequencies

UNICOM 122.8
Common traffic advisory frequency (CTAF) 122.8